sensor_id;sensor_type;location;lat;lon;timestamp;temperature;humidity
30572;DHT22;17348;50.948;10.696;2022-09-30T00:02:41;7.00;99.90
30572;DHT22;17348;50.948;10.696;2022-09-30T00:05:43;6.90;99.90
30572;DHT22;17348;50.948;10.696;2022-09-30T00:08:46;6.90;99.90
30572;DHT22;17348;50.948;10.696;2022-09-30T00:11:48;6.90;99.90
30572;DHT22;17348;50.948;10.696;2022-09-30T00:14:51;6.90;99.90
30572;DHT22;17348;50.948;10.696;2022-09-30T00:17:54;6.90;99.90
30572;DHT22;17348;50.948;10.696;2022-09-30T00:20:57;6.80;99.90
30572;DHT22;17348;50.948;10.696;2022-09-30T00:23:59;6.80;99.90
30572;DHT22;17348;50.948;10.696;2022-09-30T00:27:02;6.80;99.90
30572;DHT22;17348;50.948;10.696;2022-09-30T00:30:05;6.80;99.90
30572;DHT22;17348;50.948;10.696;2022-09-30T00:33:09;6.80;99.90
30572;DHT22;17348;50.948;10.696;2022-09-30T00:36:11;6.70;99.90
30572;DHT22;17348;50.948;10.696;2022-09-30T00:39:16;6.70;99.90
30572;DHT22;17348;50.948;10.696;2022-09-30T00:42:18;6.70;99.90
30572;DHT22;17348;50.948;10.696;2022-09-30T00:45:20;6.60;99.90
30572;DHT22;17348;50.948;10.696;2022-09-30T00:48:27;6.50;99.90
30572;DHT22;17348;50.948;10.696;2022-09-30T00:51:36;6.50;99.90
30572;DHT22;17348;50.948;10.696;2022-09-30T00:54:40;6.50;99.90
30572;DHT22;17348;50.948;10.696;2022-09-30T00:57:42;6.40;99.90
30572;DHT22;17348;50.948;10.696;2022-09-30T01:00:45;6.40;99.90
30572;DHT22;17348;50.948;10.696;2022-09-30T01:03:51;6.30;99.90
30572;DHT22;17348;50.948;10.696;2022-09-30T01:06:58;6.30;99.90
30572;DHT22;17348;50.948;10.696;2022-09-30T01:10:00;6.30;99.90
30572;DHT22;17348;50.948;10.696;2022-09-30T01:13:04;6.30;99.90
30572;DHT22;17348;50.948;10.696;2022-09-30T01:16:21;6.30;99.90
30572;DHT22;17348;50.948;10.696;2022-09-30T01:19:52;6.20;99.90
30572;DHT22;17348;50.948;10.696;2022-09-30T01:23:10;6.20;99.90
30572;DHT22;17348;50.948;10.696;2022-09-30T01:30:09;6.10;99.90
30572;DHT22;17348;50.948;10.696;2022-09-30T01:33:31;6.10;99.90
30572;DHT22;17348;50.948;10.696;2022-09-30T01:36:44;6.10;99.90
30572;DHT22;17348;50.948;10.696;2022-09-30T01:39:59;6.10;99.90
30572;DHT22;17348;50.948;10.696;2022-09-30T01:43:06;6.10;99.90
30572;DHT22;17348;50.948;10.696;2022-09-30T01:46:17;6.00;99.90
30572;DHT22;17348;50.948;10.696;2022-09-30T01:49:29;6.00;99.90
30572;DHT22;17348;50.948;10.696;2022-09-30T01:52:37;6.00;99.90
30572;DHT22;17348;50.948;10.696;2022-09-30T01:55:46;6.00;99.90
30572;DHT22;17348;50.948;10.696;2022-09-30T01:58:52;5.90;99.90
30572;DHT22;17348;50.948;10.696;2022-09-30T02:01:58;5.90;99.90
30572;DHT22;17348;50.948;10.696;2022-09-30T02:05:09;5.90;99.90
30572;DHT22;17348;50.948;10.696;2022-09-30T02:08:17;5.90;99.90
30572;DHT22;17348;50.948;10.696;2022-09-30T02:11:23;5.90;99.90
30572;DHT22;17348;50.948;10.696;2022-09-30T02:14:29;5.90;99.90
30572;DHT22;17348;50.948;10.696;2022-09-30T02:17:37;5.90;99.90
30572;DHT22;17348;50.948;10.696;2022-09-30T02:20:48;5.90;99.90
30572;DHT22;17348;50.948;10.696;2022-09-30T02:23:53;5.80;99.90
30572;DHT22;17348;50.948;10.696;2022-09-30T02:26:58;5.80;99.90
30572;DHT22;17348;50.948;10.696;2022-09-30T02:30:02;5.80;99.90
30572;DHT22;17348;50.948;10.696;2022-09-30T02:33:10;5.70;99.90
30572;DHT22;17348;50.948;10.696;2022-09-30T02:36:18;5.60;99.90
30572;DHT22;17348;50.948;10.696;2022-09-30T02:39:25;5.50;99.90
30572;DHT22;17348;50.948;10.696;2022-09-30T02:42:30;5.50;99.90
30572;DHT22;17348;50.948;10.696;2022-09-30T02:45:40;5.60;99.90
30572;DHT22;17348;50.948;10.696;2022-09-30T02:48:48;5.40;99.90
30572;DHT22;17348;50.948;10.696;2022-09-30T02:52:06;5.40;99.90
30572;DHT22;17348;50.948;10.696;2022-09-30T02:55:17;5.40;99.90
30572;DHT22;17348;50.948;10.696;2022-09-30T02:58:20;5.40;99.90
30572;DHT22;17348;50.948;10.696;2022-09-30T03:01:26;5.40;99.90
30572;DHT22;17348;50.948;10.696;2022-09-30T03:04:30;5.40;99.90
30572;DHT22;17348;50.948;10.696;2022-09-30T03:07:35;5.40;99.90
30572;DHT22;17348;50.948;10.696;2022-09-30T03:10:38;5.30;99.90
30572;DHT22;17348;50.948;10.696;2022-09-30T03:17:36;5.30;99.90
30572;DHT22;17348;50.948;10.696;2022-09-30T03:20:49;5.30;99.90
30572;DHT22;17348;50.948;10.696;2022-09-30T03:24:16;5.20;99.90
30572;DHT22;17348;50.948;10.696;2022-09-30T03:27:28;5.20;99.90
30572;DHT22;17348;50.948;10.696;2022-09-30T03:30:35;5.20;99.90
30572;DHT22;17348;50.948;10.696;2022-09-30T03:33:44;5.30;99.90
30572;DHT22;17348;50.948;10.696;2022-09-30T03:36:56;5.20;99.90
30572;DHT22;17348;50.948;10.696;2022-09-30T03:40:13;5.20;99.90
30572;DHT22;17348;50.948;10.696;2022-09-30T03:43:20;5.20;99.90
30572;DHT22;17348;50.948;10.696;2022-09-30T03:46:31;5.20;99.90
30572;DHT22;17348;50.948;10.696;2022-09-30T03:49:38;5.10;99.90
30572;DHT22;17348;50.948;10.696;2022-09-30T03:52:41;5.10;99.90
30572;DHT22;17348;50.948;10.696;2022-09-30T03:55:50;5.10;99.90
30572;DHT22;17348;50.948;10.696;2022-09-30T03:58:54;5.00;99.90
30572;DHT22;17348;50.948;10.696;2022-09-30T04:01:56;5.00;99.90
30572;DHT22;17348;50.948;10.696;2022-09-30T04:04:59;5.00;99.90
30572;DHT22;17348;50.948;10.696;2022-09-30T04:08:01;4.90;99.90
30572;DHT22;17348;50.948;10.696;2022-09-30T04:11:05;4.90;99.90
30572;DHT22;17348;50.948;10.696;2022-09-30T04:14:07;4.80;99.90
30572;DHT22;17348;50.948;10.696;2022-09-30T04:17:09;4.70;99.90
30572;DHT22;17348;50.948;10.696;2022-09-30T04:20:14;4.70;99.90
30572;DHT22;17348;50.948;10.696;2022-09-30T04:23:17;4.60;99.90
30572;DHT22;17348;50.948;10.696;2022-09-30T04:26:20;4.60;99.90
30572;DHT22;17348;50.948;10.696;2022-09-30T04:29:23;4.60;99.90
30572;DHT22;17348;50.948;10.696;2022-09-30T04:32:25;4.60;99.90
30572;DHT22;17348;50.948;10.696;2022-09-30T04:35:28;4.50;99.90
30572;DHT22;17348;50.948;10.696;2022-09-30T04:38:31;4.50;99.90
30572;DHT22;17348;50.948;10.696;2022-09-30T04:41:35;4.50;99.90
30572;DHT22;17348;50.948;10.696;2022-09-30T04:44:38;4.40;99.90
30572;DHT22;17348;50.948;10.696;2022-09-30T04:47:42;4.40;99.90
30572;DHT22;17348;50.948;10.696;2022-09-30T04:50:46;4.40;99.90
30572;DHT22;17348;50.948;10.696;2022-09-30T04:53:48;4.40;99.90
30572;DHT22;17348;50.948;10.696;2022-09-30T04:56:52;4.40;99.90
30572;DHT22;17348;50.948;10.696;2022-09-30T04:59:54;4.30;99.90
30572;DHT22;17348;50.948;10.696;2022-09-30T05:02:56;4.30;99.90
30572;DHT22;17348;50.948;10.696;2022-09-30T05:05:59;4.30;99.90
30572;DHT22;17348;50.948;10.696;2022-09-30T05:09:01;4.30;99.90
30572;DHT22;17348;50.948;10.696;2022-09-30T05:12:04;4.30;99.90
30572;DHT22;17348;50.948;10.696;2022-09-30T05:15:08;4.30;99.90
30572;DHT22;17348;50.948;10.696;2022-09-30T05:18:10;4.20;99.90
30572;DHT22;17348;50.948;10.696;2022-09-30T05:21:13;4.20;99.90
30572;DHT22;17348;50.948;10.696;2022-09-30T05:24:17;4.20;99.90
30572;DHT22;17348;50.948;10.696;2022-09-30T05:27:20;4.10;99.90
30572;DHT22;17348;50.948;10.696;2022-09-30T05:30:23;4.10;99.90
30572;DHT22;17348;50.948;10.696;2022-09-30T05:33:25;4.20;99.90
30572;DHT22;17348;50.948;10.696;2022-09-30T05:36:28;4.10;99.90
30572;DHT22;17348;50.948;10.696;2022-09-30T05:39:31;4.20;99.90
30572;DHT22;17348;50.948;10.696;2022-09-30T05:42:34;4.20;99.90
30572;DHT22;17348;50.948;10.696;2022-09-30T05:45:36;4.20;99.90
30572;DHT22;17348;50.948;10.696;2022-09-30T05:48:39;4.20;99.90
30572;DHT22;17348;50.948;10.696;2022-09-30T05:51:41;4.30;99.90
30572;DHT22;17348;50.948;10.696;2022-09-30T05:54:44;4.30;99.90
30572;DHT22;17348;50.948;10.696;2022-09-30T05:57:48;4.40;99.90
30572;DHT22;17348;50.948;10.696;2022-09-30T06:00:51;4.50;99.90
30572;DHT22;17348;50.948;10.696;2022-09-30T06:03:53;4.50;99.90
30572;DHT22;17348;50.948;10.696;2022-09-30T06:06:55;4.60;99.90
30572;DHT22;17348;50.948;10.696;2022-09-30T06:09:59;4.70;99.90
30572;DHT22;17348;50.948;10.696;2022-09-30T06:13:04;4.90;99.90
30572;DHT22;17348;50.948;10.696;2022-09-30T06:16:08;5.20;99.90
30572;DHT22;17348;50.948;10.696;2022-09-30T06:19:10;5.60;99.90
30572;DHT22;17348;50.948;10.696;2022-09-30T06:22:13;5.80;99.90
30572;DHT22;17348;50.948;10.696;2022-09-30T06:25:16;6.60;99.90
30572;DHT22;17348;50.948;10.696;2022-09-30T06:28:20;7.20;99.90
30572;DHT22;17348;50.948;10.696;2022-09-30T06:31:23;7.00;99.90
30572;DHT22;17348;50.948;10.696;2022-09-30T06:34:25;6.90;99.90
30572;DHT22;17348;50.948;10.696;2022-09-30T06:37:27;6.80;99.90
30572;DHT22;17348;50.948;10.696;2022-09-30T06:40:30;7.00;99.90
30572;DHT22;17348;50.948;10.696;2022-09-30T06:43:33;7.30;99.90
30572;DHT22;17348;50.948;10.696;2022-09-30T06:46:37;7.10;99.90
30572;DHT22;17348;50.948;10.696;2022-09-30T06:49:39;7.00;99.90
30572;DHT22;17348;50.948;10.696;2022-09-30T06:52:42;6.90;99.90
30572;DHT22;17348;50.948;10.696;2022-09-30T06:55:44;7.00;99.90
30572;DHT22;17348;50.948;10.696;2022-09-30T06:58:48;8.00;99.90
30572;DHT22;17348;50.948;10.696;2022-09-30T07:01:50;10.10;99.90
30572;DHT22;17348;50.948;10.696;2022-09-30T07:04:53;10.20;99.90
30572;DHT22;17348;50.948;10.696;2022-09-30T07:07:55;9.70;99.90
30572;DHT22;17348;50.948;10.696;2022-09-30T07:10:57;9.10;99.90
30572;DHT22;17348;50.948;10.696;2022-09-30T07:14:01;8.70;99.90
30572;DHT22;17348;50.948;10.696;2022-09-30T07:17:05;8.60;99.90
30572;DHT22;17348;50.948;10.696;2022-09-30T07:20:07;8.50;99.90
30572;DHT22;17348;50.948;10.696;2022-09-30T07:23:09;8.30;99.90
30572;DHT22;17348;50.948;10.696;2022-09-30T07:26:13;8.20;99.90
30572;DHT22;17348;50.948;10.696;2022-09-30T07:29:16;9.40;99.90
30572;DHT22;17348;50.948;10.696;2022-09-30T07:32:21;10.00;99.90
30572;DHT22;17348;50.948;10.696;2022-09-30T07:35:23;9.60;99.90
30572;DHT22;17348;50.948;10.696;2022-09-30T07:38:29;9.40;99.90
30572;DHT22;17348;50.948;10.696;2022-09-30T07:41:31;9.20;99.90
30572;DHT22;17348;50.948;10.696;2022-09-30T07:44:38;9.00;99.90
30572;DHT22;17348;50.948;10.696;2022-09-30T07:47:41;8.90;99.90
30572;DHT22;17348;50.948;10.696;2022-09-30T07:50:44;8.80;99.90
30572;DHT22;17348;50.948;10.696;2022-09-30T07:53:49;8.70;99.90
30572;DHT22;17348;50.948;10.696;2022-09-30T07:56:51;8.60;99.90
30572;DHT22;17348;50.948;10.696;2022-09-30T07:59:55;8.80;99.90
30572;DHT22;17348;50.948;10.696;2022-09-30T08:02:57;9.50;99.90
30572;DHT22;17348;50.948;10.696;2022-09-30T08:06:03;10.20;99.90
30572;DHT22;17348;50.948;10.696;2022-09-30T08:09:06;10.00;99.90
30572;DHT22;17348;50.948;10.696;2022-09-30T08:12:08;9.90;99.90
30572;DHT22;17348;50.948;10.696;2022-09-30T08:15:12;9.80;99.90
30572;DHT22;17348;50.948;10.696;2022-09-30T08:18:14;9.60;99.90
30572;DHT22;17348;50.948;10.696;2022-09-30T08:21:16;9.60;99.90
30572;DHT22;17348;50.948;10.696;2022-09-30T08:24:19;9.60;99.90
30572;DHT22;17348;50.948;10.696;2022-09-30T08:27:21;9.60;99.90
30572;DHT22;17348;50.948;10.696;2022-09-30T08:30:25;9.70;99.90
30572;DHT22;17348;50.948;10.696;2022-09-30T08:33:27;9.80;99.90
30572;DHT22;17348;50.948;10.696;2022-09-30T08:36:30;10.00;99.90
30572;DHT22;17348;50.948;10.696;2022-09-30T08:39:32;10.10;99.90
30572;DHT22;17348;50.948;10.696;2022-09-30T08:42:47;10.20;99.90
30572;DHT22;17348;50.948;10.696;2022-09-30T08:46:00;10.40;99.90
30572;DHT22;17348;50.948;10.696;2022-09-30T08:49:21;10.50;99.90
30572;DHT22;17348;50.948;10.696;2022-09-30T08:52:30;10.60;99.90
30572;DHT22;17348;50.948;10.696;2022-09-30T08:55:38;10.80;99.90
30572;DHT22;17348;50.948;10.696;2022-09-30T08:58:43;11.00;99.90
30572;DHT22;17348;50.948;10.696;2022-09-30T09:01:50;11.10;99.90
30572;DHT22;17348;50.948;10.696;2022-09-30T09:04:57;11.30;99.90
30572;DHT22;17348;50.948;10.696;2022-09-30T09:08:03;11.50;99.90
30572;DHT22;17348;50.948;10.696;2022-09-30T09:11:13;11.70;99.90
30572;DHT22;17348;50.948;10.696;2022-09-30T09:14:29;11.90;99.90
30572;DHT22;17348;50.948;10.696;2022-09-30T09:17:50;12.10;99.90
30572;DHT22;17348;50.948;10.696;2022-09-30T09:20:57;12.30;99.90
30572;DHT22;17348;50.948;10.696;2022-09-30T09:24:02;12.30;99.90
30572;DHT22;17348;50.948;10.696;2022-09-30T09:27:17;12.50;99.90
30572;DHT22;17348;50.948;10.696;2022-09-30T09:30:21;12.70;99.90
30572;DHT22;17348;50.948;10.696;2022-09-30T09:33:28;12.90;99.90
30572;DHT22;17348;50.948;10.696;2022-09-30T09:36:40;13.00;99.90
30572;DHT22;17348;50.948;10.696;2022-09-30T09:40:03;13.20;99.90
30572;DHT22;17348;50.948;10.696;2022-09-30T09:43:16;13.50;99.90
30572;DHT22;17348;50.948;10.696;2022-09-30T09:46:24;13.60;99.90
30572;DHT22;17348;50.948;10.696;2022-09-30T09:49:33;13.80;99.90
30572;DHT22;17348;50.948;10.696;2022-09-30T09:53:00;13.90;99.90
30572;DHT22;17348;50.948;10.696;2022-09-30T09:56:13;14.00;99.90
30572;DHT22;17348;50.948;10.696;2022-09-30T09:59:21;14.10;99.90
30572;DHT22;17348;50.948;10.696;2022-09-30T10:02:25;14.20;99.90
30572;DHT22;17348;50.948;10.696;2022-09-30T10:05:30;14.30;99.90
30572;DHT22;17348;50.948;10.696;2022-09-30T10:08:39;14.30;99.90
30572;DHT22;17348;50.948;10.696;2022-09-30T10:12:18;14.40;99.90
30572;DHT22;17348;50.948;10.696;2022-09-30T10:15:26;14.60;99.90
30572;DHT22;17348;50.948;10.696;2022-09-30T10:18:31;14.60;99.90
30572;DHT22;17348;50.948;10.696;2022-09-30T10:21:35;14.60;99.90
30572;DHT22;17348;50.948;10.696;2022-09-30T10:24:38;14.60;99.90
30572;DHT22;17348;50.948;10.696;2022-09-30T10:27:48;14.60;99.90
30572;DHT22;17348;50.948;10.696;2022-09-30T10:30:54;14.70;99.90
30572;DHT22;17348;50.948;10.696;2022-09-30T10:33:59;14.70;99.90
30572;DHT22;17348;50.948;10.696;2022-09-30T10:37:12;14.90;99.90
30572;DHT22;17348;50.948;10.696;2022-09-30T10:40:16;14.90;99.90
30572;DHT22;17348;50.948;10.696;2022-09-30T10:43:26;15.10;99.90
30572;DHT22;17348;50.948;10.696;2022-09-30T10:46:31;15.10;99.90
30572;DHT22;17348;50.948;10.696;2022-09-30T10:49:42;15.30;99.90
30572;DHT22;17348;50.948;10.696;2022-09-30T10:52:53;15.30;99.90
30572;DHT22;17348;50.948;10.696;2022-09-30T10:55:56;15.30;99.90
30572;DHT22;17348;50.948;10.696;2022-09-30T10:59:01;15.40;99.90
30572;DHT22;17348;50.948;10.696;2022-09-30T11:02:19;15.70;99.90
30572;DHT22;17348;50.948;10.696;2022-09-30T11:05:27;15.90;99.90
30572;DHT22;17348;50.948;10.696;2022-09-30T11:08:36;16.10;99.90
30572;DHT22;17348;50.948;10.696;2022-09-30T11:11:45;16.30;99.90
30572;DHT22;17348;50.948;10.696;2022-09-30T11:14:56;16.40;99.90
30572;DHT22;17348;50.948;10.696;2022-09-30T11:18:02;16.60;99.90
30572;DHT22;17348;50.948;10.696;2022-09-30T11:21:13;16.70;99.90
30572;DHT22;17348;50.948;10.696;2022-09-30T11:24:27;16.80;99.90
30572;DHT22;17348;50.948;10.696;2022-09-30T11:27:42;16.90;99.90
30572;DHT22;17348;50.948;10.696;2022-09-30T11:30:50;16.90;99.90
30572;DHT22;17348;50.948;10.696;2022-09-30T11:34:07;16.90;99.90
30572;DHT22;17348;50.948;10.696;2022-09-30T11:37:21;16.80;99.90
30572;DHT22;17348;50.948;10.696;2022-09-30T11:40:36;16.60;99.90
30572;DHT22;17348;50.948;10.696;2022-09-30T11:43:46;16.50;99.90
30572;DHT22;17348;50.948;10.696;2022-09-30T11:47:03;16.30;99.90
30572;DHT22;17348;50.948;10.696;2022-09-30T11:50:25;16.20;99.90
30572;DHT22;17348;50.948;10.696;2022-09-30T11:53:36;16.00;99.90
30572;DHT22;17348;50.948;10.696;2022-09-30T11:56:48;15.90;99.90
30572;DHT22;17348;50.948;10.696;2022-09-30T11:59:55;15.60;99.90
30572;DHT22;17348;50.948;10.696;2022-09-30T12:03:04;15.50;99.90
30572;DHT22;17348;50.948;10.696;2022-09-30T12:06:13;15.50;99.90
30572;DHT22;17348;50.948;10.696;2022-09-30T12:09:21;15.70;99.90
30572;DHT22;17348;50.948;10.696;2022-09-30T12:12:25;16.00;99.90
30572;DHT22;17348;50.948;10.696;2022-09-30T12:15:28;16.20;99.90
30572;DHT22;17348;50.948;10.696;2022-09-30T12:18:35;16.40;99.90
30572;DHT22;17348;50.948;10.696;2022-09-30T12:21:41;16.50;99.90
30572;DHT22;17348;50.948;10.696;2022-09-30T12:24:45;16.70;99.90
30572;DHT22;17348;50.948;10.696;2022-09-30T12:27:51;16.70;99.90
30572;DHT22;17348;50.948;10.696;2022-09-30T12:31:03;16.60;99.90
30572;DHT22;17348;50.948;10.696;2022-09-30T12:34:20;16.40;99.90
30572;DHT22;17348;50.948;10.696;2022-09-30T12:37:33;16.20;99.90
30572;DHT22;17348;50.948;10.696;2022-09-30T12:40:59;16.20;99.90
30572;DHT22;17348;50.948;10.696;2022-09-30T12:44:30;16.00;99.90
30572;DHT22;17348;50.948;10.696;2022-09-30T12:47:45;15.80;99.90
30572;DHT22;17348;50.948;10.696;2022-09-30T12:50:51;15.70;99.90
30572;DHT22;17348;50.948;10.696;2022-09-30T12:53:59;15.60;99.90
30572;DHT22;17348;50.948;10.696;2022-09-30T12:57:05;15.80;99.90
30572;DHT22;17348;50.948;10.696;2022-09-30T13:00:16;16.10;99.90
30572;DHT22;17348;50.948;10.696;2022-09-30T13:03:19;16.20;99.90
30572;DHT22;17348;50.948;10.696;2022-09-30T13:06:22;16.40;99.90
30572;DHT22;17348;50.948;10.696;2022-09-30T13:09:29;16.40;99.90
30572;DHT22;17348;50.948;10.696;2022-09-30T13:12:42;16.50;99.90
30572;DHT22;17348;50.948;10.696;2022-09-30T13:15:46;16.40;99.90
30572;DHT22;17348;50.948;10.696;2022-09-30T13:18:59;16.20;99.90
30572;DHT22;17348;50.948;10.696;2022-09-30T13:25:53;16.20;99.90
30572;DHT22;17348;50.948;10.696;2022-09-30T13:29:26;16.20;99.90
30572;DHT22;17348;50.948;10.696;2022-09-30T13:32:36;16.20;99.90
30572;DHT22;17348;50.948;10.696;2022-09-30T13:35:48;16.10;99.90
30572;DHT22;17348;50.948;10.696;2022-09-30T13:39:06;16.10;99.90
30572;DHT22;17348;50.948;10.696;2022-09-30T13:42:13;16.00;99.90
30572;DHT22;17348;50.948;10.696;2022-09-30T13:45:24;16.00;99.90
30572;DHT22;17348;50.948;10.696;2022-09-30T13:48:34;16.00;99.90
30572;DHT22;17348;50.948;10.696;2022-09-30T13:51:38;16.00;99.90
30572;DHT22;17348;50.948;10.696;2022-09-30T13:54:41;15.80;99.90
30572;DHT22;17348;50.948;10.696;2022-09-30T13:58:00;15.90;99.90
30572;DHT22;17348;50.948;10.696;2022-09-30T14:01:10;16.10;99.90
30572;DHT22;17348;50.948;10.696;2022-09-30T14:04:40;16.30;99.90
30572;DHT22;17348;50.948;10.696;2022-09-30T14:07:59;16.50;99.90
30572;DHT22;17348;50.948;10.696;2022-09-30T14:11:14;16.50;99.90
30572;DHT22;17348;50.948;10.696;2022-09-30T14:14:40;16.60;99.90
30572;DHT22;17348;50.948;10.696;2022-09-30T14:18:01;16.70;99.90
30572;DHT22;17348;50.948;10.696;2022-09-30T14:21:17;16.70;99.90
30572;DHT22;17348;50.948;10.696;2022-09-30T14:24:24;16.70;99.90
30572;DHT22;17348;50.948;10.696;2022-09-30T14:27:35;16.60;99.90
30572;DHT22;17348;50.948;10.696;2022-09-30T14:30:40;16.50;99.90
30572;DHT22;17348;50.948;10.696;2022-09-30T14:34:02;16.30;99.90
30572;DHT22;17348;50.948;10.696;2022-09-30T14:37:13;16.20;99.90
30572;DHT22;17348;50.948;10.696;2022-09-30T14:40:19;16.20;99.90
30572;DHT22;17348;50.948;10.696;2022-09-30T14:43:24;16.20;99.90
30572;DHT22;17348;50.948;10.696;2022-09-30T14:46:32;16.40;99.90
30572;DHT22;17348;50.948;10.696;2022-09-30T14:49:36;16.40;99.90
30572;DHT22;17348;50.948;10.696;2022-09-30T14:52:43;16.40;99.90
30572;DHT22;17348;50.948;10.696;2022-09-30T14:55:48;16.50;99.90
30572;DHT22;17348;50.948;10.696;2022-09-30T14:58:50;16.50;99.90
30572;DHT22;17348;50.948;10.696;2022-09-30T15:01:54;16.50;99.90
30572;DHT22;17348;50.948;10.696;2022-09-30T15:05:00;16.40;99.90
30572;DHT22;17348;50.948;10.696;2022-09-30T15:08:10;16.30;99.90
30572;DHT22;17348;50.948;10.696;2022-09-30T15:11:18;16.20;99.90
30572;DHT22;17348;50.948;10.696;2022-09-30T15:14:22;16.20;99.90
30572;DHT22;17348;50.948;10.696;2022-09-30T15:17:27;16.20;99.90
30572;DHT22;17348;50.948;10.696;2022-09-30T15:20:31;16.10;99.90
30572;DHT22;17348;50.948;10.696;2022-09-30T15:23:37;16.10;99.90
30572;DHT22;17348;50.948;10.696;2022-09-30T15:26:41;16.00;99.90
30572;DHT22;17348;50.948;10.696;2022-09-30T15:29:53;16.00;99.90
30572;DHT22;17348;50.948;10.696;2022-09-30T15:32:57;16.00;99.90
30572;DHT22;17348;50.948;10.696;2022-09-30T15:36:02;16.00;99.90
30572;DHT22;17348;50.948;10.696;2022-09-30T15:39:17;16.00;99.90
30572;DHT22;17348;50.948;10.696;2022-09-30T15:42:30;15.90;99.90
30572;DHT22;17348;50.948;10.696;2022-09-30T15:45:36;15.80;99.90
30572;DHT22;17348;50.948;10.696;2022-09-30T15:48:40;15.80;99.90
30572;DHT22;17348;50.948;10.696;2022-09-30T15:51:44;15.70;99.90
30572;DHT22;17348;50.948;10.696;2022-09-30T15:54:48;15.80;99.90
30572;DHT22;17348;50.948;10.696;2022-09-30T15:57:50;15.70;99.90
30572;DHT22;17348;50.948;10.696;2022-09-30T16:00:53;15.70;99.90
30572;DHT22;17348;50.948;10.696;2022-09-30T16:03:57;15.60;99.90
30572;DHT22;17348;50.948;10.696;2022-09-30T16:07:06;15.60;99.90
30572;DHT22;17348;50.948;10.696;2022-09-30T16:10:17;15.60;99.90
30572;DHT22;17348;50.948;10.696;2022-09-30T16:13:24;15.50;99.90
30572;DHT22;17348;50.948;10.696;2022-09-30T16:16:29;15.40;99.90
30572;DHT22;17348;50.948;10.696;2022-09-30T16:19:33;15.30;99.90
30572;DHT22;17348;50.948;10.696;2022-09-30T16:22:48;15.20;99.90
30572;DHT22;17348;50.948;10.696;2022-09-30T16:26:11;15.10;99.90
30572;DHT22;17348;50.948;10.696;2022-09-30T16:29:14;14.90;99.90
30572;DHT22;17348;50.948;10.696;2022-09-30T16:32:16;14.80;99.90
30572;DHT22;17348;50.948;10.696;2022-09-30T16:35:20;14.70;99.90
30572;DHT22;17348;50.948;10.696;2022-09-30T16:38:22;14.60;99.90
30572;DHT22;17348;50.948;10.696;2022-09-30T16:41:26;14.50;99.90
30572;DHT22;17348;50.948;10.696;2022-09-30T16:44:28;14.30;99.90
30572;DHT22;17348;50.948;10.696;2022-09-30T16:47:34;14.30;99.90
30572;DHT22;17348;50.948;10.696;2022-09-30T16:50:38;14.10;99.90
30572;DHT22;17348;50.948;10.696;2022-09-30T16:53:41;14.00;99.90
30572;DHT22;17348;50.948;10.696;2022-09-30T16:56:45;13.90;99.90
30572;DHT22;17348;50.948;10.696;2022-09-30T16:59:47;13.70;99.90
30572;DHT22;17348;50.948;10.696;2022-09-30T17:02:50;13.70;99.90
30572;DHT22;17348;50.948;10.696;2022-09-30T17:05:52;13.50;99.90
30572;DHT22;17348;50.948;10.696;2022-09-30T17:08:54;13.40;99.90
30572;DHT22;17348;50.948;10.696;2022-09-30T17:11:59;13.30;99.90
30572;DHT22;17348;50.948;10.696;2022-09-30T17:15:02;13.20;99.90
30572;DHT22;17348;50.948;10.696;2022-09-30T17:18:06;13.10;99.90
30572;DHT22;17348;50.948;10.696;2022-09-30T17:21:08;12.90;99.90
30572;DHT22;17348;50.948;10.696;2022-09-30T17:24:10;12.80;99.90
30572;DHT22;17348;50.948;10.696;2022-09-30T17:27:14;12.70;99.90
30572;DHT22;17348;50.948;10.696;2022-09-30T17:30:17;12.60;99.90
30572;DHT22;17348;50.948;10.696;2022-09-30T17:33:19;12.50;99.90
30572;DHT22;17348;50.948;10.696;2022-09-30T17:36:21;12.40;99.90
30572;DHT22;17348;50.948;10.696;2022-09-30T17:39:24;12.30;99.90
30572;DHT22;17348;50.948;10.696;2022-09-30T17:42:28;12.30;99.90
30572;DHT22;17348;50.948;10.696;2022-09-30T17:45:48;12.10;99.90
30572;DHT22;17348;50.948;10.696;2022-09-30T17:48:54;12.00;99.90
30572;DHT22;17348;50.948;10.696;2022-09-30T17:51:57;11.90;99.90
30572;DHT22;17348;50.948;10.696;2022-09-30T17:55:00;11.80;99.90
30572;DHT22;17348;50.948;10.696;2022-09-30T17:58:05;11.80;99.90
30572;DHT22;17348;50.948;10.696;2022-09-30T18:01:08;11.70;99.90
30572;DHT22;17348;50.948;10.696;2022-09-30T18:04:10;11.60;99.90
30572;DHT22;17348;50.948;10.696;2022-09-30T18:07:13;11.60;99.90
30572;DHT22;17348;50.948;10.696;2022-09-30T18:10:15;11.50;99.90
30572;DHT22;17348;50.948;10.696;2022-09-30T18:13:19;11.40;99.90
30572;DHT22;17348;50.948;10.696;2022-09-30T18:16:21;11.40;99.90
30572;DHT22;17348;50.948;10.696;2022-09-30T18:19:24;11.30;99.90
30572;DHT22;17348;50.948;10.696;2022-09-30T18:22:26;11.30;99.90
30572;DHT22;17348;50.948;10.696;2022-09-30T18:25:28;11.20;99.90
30572;DHT22;17348;50.948;10.696;2022-09-30T18:28:32;11.10;99.90
30572;DHT22;17348;50.948;10.696;2022-09-30T18:31:34;11.10;99.90
30572;DHT22;17348;50.948;10.696;2022-09-30T18:34:37;11.00;99.90
30572;DHT22;17348;50.948;10.696;2022-09-30T18:37:39;10.90;99.90
30572;DHT22;17348;50.948;10.696;2022-09-30T18:40:43;10.80;99.90
30572;DHT22;17348;50.948;10.696;2022-09-30T18:43:49;10.80;99.90
30572;DHT22;17348;50.948;10.696;2022-09-30T18:46:51;10.70;99.90
30572;DHT22;17348;50.948;10.696;2022-09-30T18:49:55;10.60;99.90
30572;DHT22;17348;50.948;10.696;2022-09-30T18:52:57;10.60;99.90
30572;DHT22;17348;50.948;10.696;2022-09-30T18:56:03;10.50;99.90
30572;DHT22;17348;50.948;10.696;2022-09-30T18:59:06;10.40;99.90
30572;DHT22;17348;50.948;10.696;2022-09-30T19:02:14;10.30;99.90
30572;DHT22;17348;50.948;10.696;2022-09-30T19:05:18;10.30;99.90
30572;DHT22;17348;50.948;10.696;2022-09-30T19:08:20;10.10;99.90
30572;DHT22;17348;50.948;10.696;2022-09-30T19:11:23;10.00;99.90
30572;DHT22;17348;50.948;10.696;2022-09-30T19:14:27;9.90;99.90
30572;DHT22;17348;50.948;10.696;2022-09-30T19:17:31;9.80;99.90
30572;DHT22;17348;50.948;10.696;2022-09-30T19:20:34;9.80;99.90
30572;DHT22;17348;50.948;10.696;2022-09-30T19:23:37;9.80;99.90
30572;DHT22;17348;50.948;10.696;2022-09-30T19:26:40;9.70;99.90
30572;DHT22;17348;50.948;10.696;2022-09-30T19:29:43;9.70;99.90
30572;DHT22;17348;50.948;10.696;2022-09-30T19:32:45;9.70;99.90
30572;DHT22;17348;50.948;10.696;2022-09-30T19:35:48;9.70;99.90
30572;DHT22;17348;50.948;10.696;2022-09-30T19:38:50;9.60;99.90
30572;DHT22;17348;50.948;10.696;2022-09-30T19:41:52;9.60;99.90